Time;durP1;ratioP1;P1;durP2;ratioP2;P2;SDS_P1;SDS_P2;PMS_P1;PMS_P2;Temp;Humidity;BMP_temperature;BMP_pressure;BME280_temperature;BME280_humidity;BME280_pressure;Samples;Min_cycle;Max_cycle;Signal;HPM_P1;HPM_P2
2021/12/08 00:00:27;;;;;;;;;0.50;0.00;;;;;;;;6373819;22;8752;-82
2021/12/08 00:02:53;;;;;;;;;2.25;1.00;;;;;;;;6373644;22;8759;-81
2021/12/08 00:05:22;;;;;;;;;0.00;0.00;;;;;;;;6374017;22;8796;-81
2021/12/08 00:07:47;;;;;;;;;1.00;0.00;;;;;;;;6373164;22;8736;-81
2021/12/08 00:10:53;;;;;;;;;0.00;0.00;;;;;;;;6374123;22;8924;-82
2021/12/08 00:13:17;;;;;;;;;0.00;0.00;;;;;;;;6371198;22;8791;-82
2021/12/08 00:15:45;;;;;;;;;1.00;1.00;;;;;;;;6372604;22;8912;-81
2021/12/08 00:18:16;;;;;;;;;3.75;0.00;;;;;;;;6373661;22;8744;-80
2021/12/08 00:20:43;;;;;;;;;1.00;1.00;;;;;;;;6374160;22;8768;-80
2021/12/08 00:23:09;;;;;;;;;0.00;0.00;;;;;;;;6371298;22;8657;-81
2021/12/08 00:25:35;;;;;;;;;0.25;0.00;;;;;;;;6345978;22;8770;-81
2021/12/08 00:28:00;;;;;;;;;2.00;0.00;;;;;;;;6371363;22;8755;-81
2021/12/08 00:30:26;;;;;;;;;0.00;0.00;;;;;;;;6365196;22;8736;-80
2021/12/08 00:32:53;;;;;;;;;0.75;0.00;;;;;;;;6369078;22;8767;-81
2021/12/08 00:35:18;;;;;;;;;0.00;0.00;;;;;;;;6367917;22;8763;-81
2021/12/08 00:37:46;;;;;;;;;1.50;0.00;;;;;;;;6366810;22;8768;-81
2021/12/08 00:40:13;;;;;;;;;0.00;0.00;;;;;;;;6368172;22;8791;-82
2021/12/08 00:42:38;;;;;;;;;0.00;0.00;;;;;;;;6370381;22;9540;-80
2021/12/08 00:45:04;;;;;;;;;1.00;1.00;;;;;;;;6345140;22;9411;-80
2021/12/08 00:47:32;;;;;;;;;0.00;0.00;;;;;;;;6371182;22;8748;-81
2021/12/08 00:49:57;;;;;;;;;0.00;0.00;;;;;;;;6372847;22;8740;-81
2021/12/08 00:52:28;;;;;;;;;0.50;0.00;;;;;;;;6370629;22;8896;-81
2021/12/08 00:54:53;;;;;;;;;1.75;0.00;;;;;;;;6368673;22;8736;-81
2021/12/08 00:57:18;;;;;;;;;1.25;0.25;;;;;;;;6364960;22;8771;-80
2021/12/08 00:59:44;;;;;;;;;0.00;0.00;;;;;;;;6367881;22;8748;-80
2021/12/08 01:02:11;;;;;;;;;1.00;0.00;;;;;;;;6370777;22;10284;-83
2021/12/08 01:04:36;;;;;;;;;0.00;0.00;;;;;;;;6374929;22;11007;-83
2021/12/08 01:07:03;;;;;;;;;0.00;0.00;;;;;;;;6371717;22;8829;-82
2021/12/08 01:09:28;;;;;;;;;1.00;0.00;;;;;;;;6370624;22;10173;-81
2021/12/08 01:11:56;;;;;;;;;0.50;0.00;;;;;;;;6368880;22;8736;-83
2021/12/08 01:14:21;;;;;;;;;0.00;0.00;;;;;;;;6346790;22;8875;-82
2021/12/08 01:16:47;;;;;;;;;0.00;0.00;;;;;;;;6374038;22;8767;-82
2021/12/08 01:19:12;;;;;;;;;0.00;0.00;;;;;;;;6377050;22;8973;-83
2021/12/08 01:21:37;;;;;;;;;1.00;0.00;;;;;;;;6371219;22;10511;-82
2021/12/08 01:24:02;;;;;;;;;0.00;0.00;;;;;;;;6347254;22;8764;-82
2021/12/08 01:26:28;;;;;;;;;0.00;0.00;;;;;;;;6370118;22;12158;-82
2021/12/08 01:28:56;;;;;;;;;1.25;0.00;;;;;;;;6374510;22;8775;-82
2021/12/08 01:31:24;;;;;;;;;0.50;0.00;;;;;;;;6370717;22;8908;-82
2021/12/08 01:33:50;;;;;;;;;0.00;0.00;;;;;;;;6376474;22;8716;-82
2021/12/08 01:36:16;;;;;;;;;0.00;0.00;;;;;;;;6369761;22;8778;-82
2021/12/08 01:38:41;;;;;;;;;0.00;0.00;;;;;;;;6366992;22;8807;-82
2021/12/08 01:41:07;;;;;;;;;0.00;0.00;;;;;;;;6366750;22;8761;-82
2021/12/08 01:46:30;;;;;;;;;1.00;0.00;;;;;;;;6266657;22;8742;-84
2021/12/08 01:48:56;;;;;;;;;3.25;0.00;;;;;;;;6274953;22;8754;-82
2021/12/08 01:51:25;;;;;;;;;1.00;1.00;;;;;;;;6273386;22;8750;-84
2021/12/08 01:53:52;;;;;;;;;0.00;0.00;;;;;;;;6246179;22;8773;-82
2021/12/08 01:56:21;;;;;;;;;0.50;0.00;;;;;;;;6267404;22;8840;-82
2021/12/08 01:58:46;;;;;;;;;0.00;0.00;;;;;;;;6274283;22;8738;-83
2021/12/08 02:01:15;;;;;;;;;1.00;0.00;;;;;;;;6244578;22;9217;-82
2021/12/08 02:03:41;;;;;;;;;1.75;0.00;;;;;;;;6270819;22;9583;-82
2021/12/08 02:06:09;;;;;;;;;0.00;0.00;;;;;;;;6243794;22;8840;-82
2021/12/08 02:08:35;;;;;;;;;0.50;0.00;;;;;;;;6249649;22;8746;-82
2021/12/08 02:11:02;;;;;;;;;0.00;0.00;;;;;;;;6249802;22;9214;-83
2021/12/08 02:13:30;;;;;;;;;0.00;0.00;;;;;;;;6254185;22;8746;-82
2021/12/08 02:15:56;;;;;;;;;3.25;0.00;;;;;;;;6277976;22;8758;-86
2021/12/08 02:18:23;;;;;;;;;1.00;1.00;;;;;;;;6276673;22;8770;-82
2021/12/08 02:20:50;;;;;;;;;1.00;0.00;;;;;;;;6274819;22;9134;-82
2021/12/08 02:23:16;;;;;;;;;0.25;0.00;;;;;;;;6340172;22;9425;-82
2021/12/08 02:25:45;;;;;;;;;0.00;0.00;;;;;;;;6346289;22;8791;-82
2021/12/08 02:28:14;;;;;;;;;4.00;0.00;;;;;;;;6375131;22;8736;-83
2021/12/08 02:30:50;;;;;;;;;0.00;0.00;;;;;;;;6372843;22;8747;-82
2021/12/08 02:47:30;;;;;;;;;1.50;1.00;;;;;;;;6371946;22;8728;-83
2021/12/08 02:49:55;;;;;;;;;0.00;0.00;;;;;;;;6373474;22;8656;-83
2021/12/08 02:52:21;;;;;;;;;1.25;0.00;;;;;;;;6368525;22;8728;-84
2021/12/08 02:54:47;;;;;;;;;1.00;0.00;;;;;;;;6369068;22;8799;-83
2021/12/08 02:57:14;;;;;;;;;2.00;0.00;;;;;;;;6340614;22;8775;-83
2021/12/08 02:59:40;;;;;;;;;2.50;0.00;;;;;;;;6375236;22;8721;-82
2021/12/08 03:02:05;;;;;;;;;0.00;0.00;;;;;;;;6372030;22;8842;-79
2021/12/08 03:04:30;;;;;;;;;0.00;0.00;;;;;;;;6373879;22;8775;-80
2021/12/08 03:06:56;;;;;;;;;1.50;0.50;;;;;;;;6370740;22;8763;-80
2021/12/08 03:09:21;;;;;;;;;0.00;0.00;;;;;;;;6369522;22;8732;-80
2021/12/08 03:11:47;;;;;;;;;0.00;0.00;;;;;;;;6369086;22;8788;-80
2021/12/08 03:14:14;;;;;;;;;0.00;0.00;;;;;;;;6377547;22;8724;-80
2021/12/08 03:16:41;;;;;;;;;2.75;0.00;;;;;;;;6344097;22;8846;-80
2021/12/08 03:19:07;;;;;;;;;2.00;1.00;;;;;;;;6377848;22;8750;-81
2021/12/08 03:21:33;;;;;;;;;1.00;0.00;;;;;;;;6371649;22;8736;-81
2021/12/08 03:26:49;;;;;;;;;1.25;0.00;;;;;;;;6365785;22;8750;-80
2021/12/08 03:29:27;;;;;;;;;3.25;0.00;;;;;;;;6345742;22;8751;-80
2021/12/08 03:31:54;;;;;;;;;0.00;0.00;;;;;;;;6373091;22;8740;-80
2021/12/08 03:34:23;;;;;;;;;0.75;0.75;;;;;;;;6376662;22;8704;-80
2021/12/08 03:36:52;;;;;;;;;0.00;0.00;;;;;;;;6372829;22;8732;-81
2021/12/08 03:39:17;;;;;;;;;0.00;0.00;;;;;;;;6368265;22;8680;-81
2021/12/08 03:41:42;;;;;;;;;0.00;0.00;;;;;;;;6341001;22;9530;-81
2021/12/08 03:44:08;;;;;;;;;3.50;0.00;;;;;;;;6344686;22;8807;-80
2021/12/08 03:46:40;;;;;;;;;0.00;0.00;;;;;;;;6372741;22;8759;-81
2021/12/08 03:49:10;;;;;;;;;1.00;1.00;;;;;;;;6375484;22;8740;-80
2021/12/08 03:51:35;;;;;;;;;1.50;0.00;;;;;;;;6370453;22;9470;-80
2021/12/08 03:54:01;;;;;;;;;1.00;0.00;;;;;;;;6345689;22;8782;-80
2021/12/08 03:56:26;;;;;;;;;0.00;0.00;;;;;;;;6341425;22;8794;-80
2021/12/08 03:58:51;;;;;;;;;1.33;0.67;;;;;;;;6373724;22;8772;-81
2021/12/08 04:01:16;;;;;;;;;0.00;0.00;;;;;;;;6374247;22;9546;-81
2021/12/08 04:03:48;;;;;;;;;0.00;0.00;;;;;;;;6374024;22;9553;-81
2021/12/08 04:06:27;;;;;;;;;2.00;1.00;;;;;;;;6343576;22;8751;-81
2021/12/08 04:08:56;;;;;;;;;0.00;0.00;;;;;;;;6339220;22;8752;-80
2021/12/08 04:11:25;;;;;;;;;2.00;0.00;;;;;;;;6364871;22;8762;-80
2021/12/08 04:13:59;;;;;;;;;1.25;1.00;;;;;;;;6368488;22;8766;-81
2021/12/08 04:16:28;;;;;;;;;0.75;0.75;;;;;;;;6371177;22;8816;-80
2021/12/08 04:18:55;;;;;;;;;1.00;0.00;;;;;;;;6347003;22;9610;-81
2021/12/08 04:21:21;;;;;;;;;6.50;1.00;;;;;;;;6366434;22;8740;-80
2021/12/08 04:23:46;;;;;;;;;1.00;0.00;;;;;;;;6336652;22;8795;-80
2021/12/08 04:26:16;;;;;;;;;4.50;0.75;;;;;;;;6367176;22;8731;-79
2021/12/08 04:28:41;;;;;;;;;1.00;0.00;;;;;;;;6338539;22;9504;-81
2021/12/08 04:31:09;;;;;;;;;0.00;0.00;;;;;;;;6366862;22;8740;-80
2021/12/08 04:33:38;;;;;;;;;1.50;1.50;;;;;;;;6368665;22;9360;-80
2021/12/08 04:36:06;;;;;;;;;0.25;0.00;;;;;;;;6367063;22;8748;-81
2021/12/08 04:38:42;;;;;;;;;4.00;0.00;;;;;;;;6372561;22;8748;-80
2021/12/08 04:41:11;;;;;;;;;1.00;1.00;;;;;;;;6344035;22;8761;-81
2021/12/08 04:44:25;;;;;;;;;0.00;0.00;;;;;;;;6344724;22;8777;-80
2021/12/08 05:00:45;;;;;;;;;0.00;0.00;;;;;;;;6373387;22;8736;-80
2021/12/08 05:03:34;;;;;;;;;1.50;0.75;;;;;;;;6372226;22;8764;-81
2021/12/08 05:06:16;;;;;;;;;0.75;0.00;;;;;;;;6372753;22;8752;-81
2021/12/08 05:09:05;;;;;;;;;0.00;0.00;;;;;;;;6373930;22;8681;-81
2021/12/08 05:11:38;;;;;;;;;0.50;0.50;;;;;;;;6209217;23;8777;-79
2021/12/08 05:14:09;;;;;;;;;2.00;0.75;;;;;;;;6207671;23;8749;-80
2021/12/08 05:16:37;;;;;;;;;1.25;1.25;;;;;;;;6207654;23;8760;-80
2021/12/08 05:19:05;;;;;;;;;1.75;0.00;;;;;;;;6186449;23;8846;-81
2021/12/08 05:21:36;;;;;;;;;2.00;0.00;;;;;;;;6214225;23;8850;-81
2021/12/08 05:24:07;;;;;;;;;6.00;1.00;;;;;;;;6216250;23;8755;-81
2021/12/08 05:26:35;;;;;;;;;4.00;0.00;;;;;;;;6210735;23;8921;-81
2021/12/08 05:29:17;;;;;;;;;0.00;0.00;;;;;;;;6209584;23;9197;-81
2021/12/08 05:31:43;;;;;;;;;2.00;0.50;;;;;;;;6206534;23;8748;-79
2021/12/08 05:34:08;;;;;;;;;3.75;1.00;;;;;;;;6215567;23;8863;-80
2021/12/08 05:39:11;;;;;;;;;2.25;1.00;;;;;;;;6356726;22;8772;-81
2021/12/08 05:41:38;;;;;;;;;2.00;1.00;;;;;;;;6367221;22;8729;-78
2021/12/08 05:44:04;;;;;;;;;1.00;0.50;;;;;;;;6374819;22;8736;-78
2021/12/08 05:46:31;;;;;;;;;0.00;0.00;;;;;;;;6369710;22;8700;-79
2021/12/08 05:48:56;;;;;;;;;3.25;1.00;;;;;;;;6371588;22;8754;-77
2021/12/08 05:51:29;;;;;;;;;0.00;0.00;;;;;;;;6367176;22;8728;-80
2021/12/08 05:54:00;;;;;;;;;0.00;0.00;;;;;;;;6371264;22;8756;-80
2021/12/08 05:56:28;;;;;;;;;4.00;0.25;;;;;;;;6336813;22;8677;-80
2021/12/08 05:58:55;;;;;;;;;1.25;1.00;;;;;;;;6373447;22;8724;-80
2021/12/08 06:01:26;;;;;;;;;2.00;1.00;;;;;;;;6373929;22;8728;-82
2021/12/08 06:03:52;;;;;;;;;3.50;0.75;;;;;;;;6369053;22;8720;-82
2021/12/08 06:06:18;;;;;;;;;4.00;1.00;;;;;;;;6367544;22;8732;-82
2021/12/08 06:08:44;;;;;;;;;3.50;1.00;;;;;;;;6372510;22;8724;-81
2021/12/08 06:11:13;;;;;;;;;1.75;1.00;;;;;;;;6339566;22;8779;-82
2021/12/08 06:13:41;;;;;;;;;0.25;0.00;;;;;;;;6372239;22;8712;-82
2021/12/08 06:16:06;;;;;;;;;1.50;0.75;;;;;;;;6338722;22;8760;-82
2021/12/08 06:18:38;;;;;;;;;1.00;1.00;;;;;;;;6339876;22;8740;-82
2021/12/08 06:21:04;;;;;;;;;8.50;7.50;;;;;;;;6370613;22;8728;-82
2021/12/08 06:23:32;;;;;;;;;14.00;11.00;;;;;;;;6375638;22;8870;-82
2021/12/08 06:26:05;;;;;;;;;15.00;12.00;;;;;;;;6371849;22;8779;-83
2021/12/08 06:28:31;;;;;;;;;5.75;5.00;;;;;;;;6372349;22;8724;-84
2021/12/08 06:30:56;;;;;;;;;12.50;7.50;;;;;;;;6371254;22;8790;-82
2021/12/08 06:33:22;;;;;;;;;4.75;2.50;;;;;;;;6344382;22;8745;-82
2021/12/08 06:35:50;;;;;;;;;1.00;1.00;;;;;;;;6343176;22;8905;-82
2021/12/08 06:38:16;;;;;;;;;16.00;13.00;;;;;;;;6373362;22;8767;-82
2021/12/08 06:41:02;;;;;;;;;8.75;7.50;;;;;;;;6373907;22;9396;-82
2021/12/08 06:43:30;;;;;;;;;2.75;2.00;;;;;;;;6217699;23;8749;-83
2021/12/08 06:46:00;;;;;;;;;10.50;9.25;;;;;;;;6215819;23;9296;-83
2021/12/08 06:48:33;;;;;;;;;8.50;5.00;;;;;;;;6216900;23;8866;-82
2021/12/08 06:51:09;;;;;;;;;8.00;5.50;;;;;;;;6217078;23;8811;-82
2021/12/08 06:53:35;;;;;;;;;5.25;5.00;;;;;;;;6218665;23;8844;-86
2021/12/08 06:56:06;;;;;;;;;4.00;1.00;;;;;;;;6219021;23;8753;-82
2021/12/08 06:58:36;;;;;;;;;5.25;3.00;;;;;;;;6217705;23;8815;-82
2021/12/08 07:01:29;;;;;;;;;4.00;2.00;;;;;;;;6216952;23;8788;-83
2021/12/08 07:06:58;;;;;;;;;5.00;2.00;;;;;;;;6216902;23;8893;-83
2021/12/08 07:09:26;;;;;;;;;6.00;3.00;;;;;;;;6218956;23;8748;-82
2021/12/08 07:11:52;;;;;;;;;8.25;1.50;;;;;;;;6213438;23;8763;-82
2021/12/08 07:14:18;;;;;;;;;4.50;2.00;;;;;;;;6210897;23;8802;-83
2021/12/08 07:16:45;;;;;;;;;3.50;1.75;;;;;;;;6207807;23;8940;-83
2021/12/08 07:19:21;;;;;;;;;1.25;1.25;;;;;;;;6218622;23;8737;-83
2021/12/08 07:21:47;;;;;;;;;6.00;3.50;;;;;;;;6373406;22;8724;-83
2021/12/08 07:24:15;;;;;;;;;4.00;1.25;;;;;;;;6377999;22;8778;-85
2021/12/08 07:26:41;;;;;;;;;6.00;5.00;;;;;;;;6345866;22;8739;-81
2021/12/08 07:29:12;;;;;;;;;5.25;3.50;;;;;;;;6377221;22;8855;-81
2021/12/08 07:31:44;;;;;;;;;1.25;1.25;;;;;;;;6347368;22;8748;-81
2021/12/08 07:34:15;;;;;;;;;1.50;0.75;;;;;;;;6377444;22;8809;-81
2021/12/08 07:36:42;;;;;;;;;6.00;3.50;;;;;;;;6378077;22;8790;-82
2021/12/08 07:39:10;;;;;;;;;7.00;2.00;;;;;;;;6377963;22;8771;-81
2021/12/08 07:41:37;;;;;;;;;5.50;1.50;;;;;;;;6375897;22;8865;-82
2021/12/08 07:44:09;;;;;;;;;5.75;2.00;;;;;;;;6377249;22;8779;-81
2021/12/08 07:46:37;;;;;;;;;4.25;1.00;;;;;;;;6376789;22;8747;-81
2021/12/08 07:49:10;;;;;;;;;1.00;1.00;;;;;;;;6377451;22;8708;-82
2021/12/08 07:51:40;;;;;;;;;2.75;2.50;;;;;;;;6376305;22;8732;-81
2021/12/08 07:54:08;;;;;;;;;7.50;3.50;;;;;;;;6377603;22;8766;-81
2021/12/08 07:56:34;;;;;;;;;5.00;5.00;;;;;;;;6346925;22;8724;-79
2021/12/08 07:59:02;;;;;;;;;6.75;5.00;;;;;;;;6377277;22;8789;-83
2021/12/08 08:01:30;;;;;;;;;7.50;3.50;;;;;;;;6376419;22;8716;-82
2021/12/08 08:03:56;;;;;;;;;6.50;5.00;;;;;;;;6344186;22;8724;-84
2021/12/08 08:06:28;;;;;;;;;14.75;4.50;;;;;;;;6373785;22;8759;-80
2021/12/08 08:08:53;;;;;;;;;16.75;15.00;;;;;;;;6348071;22;8755;-81
2021/12/08 08:11:57;;;;;;;;;20.25;16.00;;;;;;;;6348939;22;8763;-85
2021/12/08 09:05:34;;;;;;;;;3.00;1.00;;;;;;;;6382290;22;8783;-80
2021/12/08 09:18:58;;;;;;;;;13.75;10.00;;;;;;;;6340005;22;8700;-85
2021/12/08 09:44:42;;;;;;;;;4.00;4.00;;;;;;;;6311207;22;8718;-81
2021/12/08 09:47:07;;;;;;;;;6.00;4.50;;;;;;;;6350938;22;8836;-82
2021/12/08 09:49:41;;;;;;;;;29.50;23.75;;;;;;;;6389252;22;8752;-83
2021/12/08 10:02:38;;;;;;;;;6.75;4.75;;;;;;;;6376866;22;8774;-82
2021/12/08 10:15:23;;;;;;;;;6.75;3.25;;;;;;;;6358960;22;8780;-84
2021/12/08 11:04:30;;;;;;;;;1.00;1.00;;;;;;;;6314677;22;8780;-83
2021/12/08 11:07:06;;;;;;;;;0.50;0.00;;;;;;;;6350864;22;8763;-83
2021/12/08 11:51:12;;;;;;;;;6.75;2.00;;;;;;;;6310850;22;8736;-87
2021/12/08 12:01:29;;;;;;;;;2.00;1.00;;;;;;;;6320564;22;8702;-83
2021/12/08 12:55:44;;;;;;;;;0.00;0.00;;;;;;;;6372612;22;9089;-80
2021/12/08 12:58:25;;;;;;;;;3.00;1.00;;;;;;;;6375813;22;8672;-81
2021/12/08 13:06:01;;;;;;;;;1.00;1.00;;;;;;;;6315271;22;8904;-83
2021/12/08 13:19:03;;;;;;;;;1.00;1.00;;;;;;;;6314516;22;8826;-85
2021/12/08 14:00:17;;;;;;;;;7.25;2.50;;;;;;;;6341048;22;8791;-87
2021/12/08 14:11:04;;;;;;;;;2.00;2.00;;;;;;;;6320074;22;8799;-83
2021/12/08 14:13:32;;;;;;;;;0.50;0.50;;;;;;;;6351079;22;8783;-83
2021/12/08 14:26:19;;;;;;;;;0.00;0.00;;;;;;;;6313224;22;8775;-83
2021/12/08 15:02:29;;;;;;;;;3.00;2.00;;;;;;;;6347788;22;8833;-81
2021/12/08 15:04:55;;;;;;;;;6.25;3.00;;;;;;;;6349483;22;8756;-81
2021/12/08 15:07:22;;;;;;;;;9.25;5.00;;;;;;;;6376215;22;8762;-80
2021/12/08 15:17:32;;;;;;;;;2.00;2.00;;;;;;;;6317590;22;8781;-81
2021/12/08 15:19:58;;;;;;;;;4.00;2.25;;;;;;;;6349800;22;8800;-81
2021/12/08 15:35:19;;;;;;;;;0.00;0.00;;;;;;;;6351987;22;8530;-85
2021/12/08 15:38:11;;;;;;;;;2.00;0.00;;;;;;;;6342334;22;8766;-84
2021/12/08 15:40:38;;;;;;;;;3.50;1.25;;;;;;;;6217702;23;8881;-82
2021/12/08 15:43:09;;;;;;;;;2.25;1.00;;;;;;;;6222934;23;8900;-80
2021/12/08 15:45:37;;;;;;;;;1.00;1.00;;;;;;;;6218639;23;8773;-81
2021/12/08 15:48:07;;;;;;;;;2.00;1.50;;;;;;;;6192613;23;8768;-82
2021/12/08 16:01:06;;;;;;;;;1.00;0.75;;;;;;;;6316708;22;9778;-81
2021/12/08 16:11:31;;;;;;;;;0.75;0.75;;;;;;;;6311943;22;9944;-83
2021/12/08 16:14:14;;;;;;;;;1.00;1.00;;;;;;;;6350101;22;8714;-84
2021/12/08 17:47:45;;;;;;;;;12.25;5.50;;;;;;;;6334177;22;8796;-81
2021/12/08 17:56:18;;;;;;;;;26.50;20.00;;;;;;;;6374918;22;8728;-84
2021/12/08 17:58:47;;;;;;;;;15.75;12.50;;;;;;;;6381409;22;8817;-81
2021/12/08 18:01:58;;;;;;;;;11.25;7.75;;;;;;;;6379851;22;8744;-83
2021/12/08 18:22:09;;;;;;;;;8.25;6.00;;;;;;;;6333697;22;8697;-82
2021/12/08 18:24:35;;;;;;;;;6.00;6.00;;;;;;;;6377325;22;8780;-84
2021/12/08 18:27:00;;;;;;;;;7.50;6.00;;;;;;;;6373103;22;8744;-84
2021/12/08 18:29:26;;;;;;;;;6.00;6.00;;;;;;;;6373284;22;8818;-85
2021/12/08 18:37:03;;;;;;;;;8.25;7.00;;;;;;;;6312075;22;8764;-88
2021/12/08 18:42:12;;;;;;;;;9.25;6.00;;;;;;;;6324803;22;8783;-85
2021/12/08 19:51:58;;;;;;;;;10.00;7.00;;;;;;;;6333045;22;8791;-82
2021/12/08 19:54:23;;;;;;;;;10.00;8.75;;;;;;;;6367626;22;8748;-90
2021/12/08 19:56:54;;;;;;;;;12.75;12.00;;;;;;;;6363450;22;8818;-84
2021/12/08 19:59:28;;;;;;;;;17.00;14.50;;;;;;;;6370148;22;8764;-82
2021/12/08 20:14:49;;;;;;;;;27.50;24.50;;;;;;;;6363820;22;8764;-84
2021/12/08 20:33:48;;;;;;;;;16.00;13.50;;;;;;;;6328038;22;8866;-85
2021/12/08 21:04:41;;;;;;;;;15.00;15.00;;;;;;;;6307813;22;8702;-83
2021/12/08 21:07:48;;;;;;;;;22.25;12.75;;;;;;;;6361921;22;8960;-87
2021/12/08 21:15:24;;;;;;;;;15.50;10.00;;;;;;;;6320216;22;8796;-86
2021/12/08 21:38:30;;;;;;;;;5.00;4.75;;;;;;;;6328283;22;8771;-87
2021/12/08 22:04:11;;;;;;;;;5.00;5.00;;;;;;;;6364564;22;8704;-86
2021/12/08 22:16:56;;;;;;;;;7.00;5.00;;;;;;;;6380556;22;8756;-86
2021/12/08 22:43:06;;;;;;;;;16.50;12.00;;;;;;;;6332964;22;8780;-88
2021/12/08 23:08:53;;;;;;;;;6.00;6.00;;;;;;;;6362414;22;8783;-83
2021/12/08 23:21:41;;;;;;;;;1.00;1.00;;;;;;;;6344965;22;8716;-83
2021/12/08 23:35:02;;;;;;;;;1.75;1.00;;;;;;;;6352151;22;8772;-82
2021/12/08 23:37:44;;;;;;;;;1.00;1.00;;;;;;;;6376727;22;8688;-81
2021/12/08 23:48:27;;;;;;;;;3.00;1.75;;;;;;;;6367788;22;8776;-82
